11 agosto 2022

Tempo Codice Tempo metereologico Temp. Vista Base nuvolosa Vento METAR/SPECI
18:50
V
25 °C 10 km+ - 050° 050° 9 kt METAR EDHL 111650Z 05009KT CAVOK 25/10 Q1023 RMK
18:20
V
26 °C 10 km+ - 030° 030° 10 kt METAR EDHL 111620Z 03010KT CAVOK 26/11 Q1023 RMK
17:50
V
26 °C 10 km+ - 030° 030° 11 kt METAR EDHL 111550Z 03011KT CAVOK 26/11 Q1023 RMK
17:20
V
26 °C 10 km+ - 030° 030° 11 kt METAR EDHL 111520Z 03011KT CAVOK 26/12 Q1023
16:50
V
27 °C 10 km+ - 050° 050° 10 kt METAR EDHL 111450Z 05010KT 020V080 CAVOK 27/11 Q1023 RMK
16:20
V
27 °C 10 km+ - 060° 060° 10 kt METAR EDHL 111420Z 06010KT 030V090 CAVOK 27/11 Q1023 RMK
15:50
V
28 °C 10 km+ - 050° 050° 10 kt METAR EDHL 111350Z 05010KT 010V080 CAVOK 28/12 Q1023 RMK
14:50
V
27 °C 10 km+ - 030° 030° 10 kt METAR EDHL 111250Z 03010KT 360V070 CAVOK 27/11 Q1024
14:20
V
27 °C 10 km+ - 060° 060° 9 kt METAR EDHL 111220Z 06009KT 010V110 CAVOK 27/11 Q1024 RMK
13:50
V
27 °C 10 km+ - 030° 030° 11 kt METAR EDHL 111150Z 03011KT 360V060 CAVOK 27/12 Q1024 RMK
13:20
V
28 °C 10 km+ - 100° 100° 5 kt METAR EDHL 111120Z 10005KT 030V200 CAVOK 28/12 Q1024 RMK
12:50
V
27 °C 10 km+ - Var Var 5 kt METAR EDHL 111050Z VRB05KT CAVOK 27/11 Q1024
12:20
V
27 °C 10 km+ - Var Var 5 kt METAR EDHL 111020Z VRB05KT CAVOK 27/12 Q1025
11:50
V
26 °C 10 km+ - 090° 090° 5 kt METAR EDHL 110950Z 09005KT 350V160 CAVOK 26/11 Q1025 RMK
11:20
V
25 °C 10 km+ - 100° 100° 5 kt METAR EDHL 110920Z 10005KT 050V140 CAVOK 25/12 Q1025
10:50
V
25 °C 10 km+ - 090° 090° 4 kt METAR EDHL 110850Z 09004KT 030V150 CAVOK 25/13 Q1025 RMK
10:20
V
24 °C 10 km+ - 070° 070° 3 kt METAR EDHL 110820Z 07003KT 340V140 CAVOK 24/14 Q1025 RMK
09:50
V
22 °C 10 km+ - 050° 050° 3 kt METAR EDHL 110750Z 05003KT 350V130 CAVOK 22/14 Q1025 RMK
09:20
V
21 °C 10 km+ - 080° 080° 3 kt METAR EDHL 110720Z 08003KT 040V120 CAVOK 21/13 Q1025 RMK
08:50
V
19 °C 10 km+ - 050° 050° 4 kt METAR EDHL 110650Z 05004KT CAVOK 19/13 Q1025 RMK
08:20
V
18 °C 10 km+ - 090° 090° 4 kt METAR EDHL 110620Z 09004KT CAVOK 18/14 Q1025 RMK
07:50
V
16 °C 10 km+ - 080° 080° 2 kt METAR EDHL 110550Z 08002KT CAVOK 16/14 Q1025 RMK
07:20
V
15 °C 10 km+ - Var Var 1 kt METAR EDHL 110520Z VRB01KT CAVOK 15/14 Q1025 RMK
06:50
V
13 °C 10 km+ - Var 000° 0 kt METAR EDHL 110450Z 00000KT CAVOK 13/12 Q1025 RMK
06:20
V
12 °C 10 km+ - Var 000° 0 kt METAR EDHL 110420Z 00000KT CAVOK 12/11 Q1025 RMK
05:50
V
12 °C 10 km+ - Var 000° 0 kt METAR EDHL 110350Z AUTO 00000KT 9999 // NCD 12/11 Q1025
05:20
M
11 °C 7 km - Var 000° 0 kt METAR EDHL 110320Z AUTO 00000KT 7000 // FEW094/// 11/11 Q1025
04:50
V
12 °C 10 km+ - 100° 100° 1 kt METAR EDHL 110250Z AUTO 10001KT 9999 // NCD 12/12 Q1025
04:20
V
12 °C 10 km+ - 080° 080° 1 kt METAR EDHL 110220Z AUTO 08001KT 9999 // NCD 12/11 Q1025
03:50
V
13 °C 10 km+ - Var 000° 0 kt METAR EDHL 110150Z AUTO 00000KT 9999 // FEW001/// 13/12 Q1025
03:20
V
13 °C 10 km+ - Var 000° 0 kt METAR EDHL 110120Z AUTO 00000KT 9999 // NCD 13/12 Q1025
02:50
V
13 °C 10 km+ - Var 000° 0 kt METAR EDHL 110050Z AUTO 00000KT 9999 // NCD 13/12 Q1025
02:20
V
13 °C 10 km+ - Var 000° 0 kt METAR EDHL 110020Z AUTO 00000KT 9999 // NCD 13/12 Q1025
01:50
V
13 °C 10 km+ - 090° 090° 1 kt METAR EDHL 102350Z AUTO 09001KT 9999 // NCD 13/12 Q1025
01:20
V
14 °C 10 km+ - Var 000° 0 kt METAR EDHL 102320Z AUTO 00000KT 9999 // NCD 14/13 Q1025
00:50
V
14 °C 10 km+ - Var 000° 0 kt METAR EDHL 102250Z AUTO 00000KT 9999 // NCD 14/12 Q1025
00:20
V
15 °C 10 km+ - Var 000° 0 kt METAR EDHL 102220Z AUTO 00000KT 9999 // NCD 15/13 Q1025

10 agosto 2022

Tempo Codice Tempo metereologico Temp. Vista Base nuvolosa Vento METAR/SPECI
23:50
V
16 °C 10 km+ - Var 000° 0 kt METAR EDHL 102150Z AUTO 00000KT 9999 // NCD 16/13 Q1026
23:20
V
16 °C 10 km+ - Var 000° 0 kt METAR EDHL 102120Z AUTO 00000KT 9999 // NCD 16/13 Q1026
22:50
V
17 °C 10 km+ - Var Var 1 kt METAR EDHL 102050Z AUTO VRB01KT 9999 // NCD 17/13 Q1026
22:20
V
18 °C 10 km+ - 090° 090° 2 kt METAR EDHL 102020Z AUTO 09002KT 9999 // NCD 18/13 Q1026
21:50
V
18 °C 10 km+ - 070° 070° 4 kt METAR EDHL 101950Z AUTO 07004KT 9999 // NCD 18/13 Q1026
21:20
V
19 °C 10 km+ - 070° 070° 5 kt METAR EDHL 101920Z AUTO 07005KT 9999 // NCD 19/13 Q1026
20:50
V
20 °C 10 km+ - 060° 060° 5 kt METAR EDHL 101850Z 06005KT CAVOK 20/13 Q1026 RMK
20:20
V
22 °C 10 km+ - 060° 060° 7 kt METAR EDHL 101820Z 06007KT CAVOK 22/13 Q1025 RMK
19:50
V
23 °C 10 km+ - 090° 090° 8 kt METAR EDHL 101750Z 09008KT CAVOK 23/13 Q1025 RMK
19:20
V
24 °C 10 km+ - 060° 060° 8 kt METAR EDHL 101720Z 06008KT CAVOK 24/13 Q1025 RMK
18:50
V
24 °C 10 km+ - 070° 070° 8 kt METAR EDHL 101650Z 07008KT 040V110 CAVOK 24/13 Q1026 RMK
18:20
V
25 °C 10 km+ - 070° 070° 9 kt METAR EDHL 101620Z 07009KT CAVOK 25/13 Q1026 RMK
17:50
V
25 °C 10 km+ - 040° 040° 8 kt METAR EDHL 101550Z 04008KT CAVOK 25/13 Q1026 RMK
17:20
V
25 °C 10 km+ - 050° 050° 8 kt METAR EDHL 101520Z 05008KT 020V100 CAVOK 25/12 Q1026
16:50
V
25 °C 10 km+ - 040° 040° 9 kt METAR EDHL 101450Z 04009KT CAVOK 25/12 Q1026
16:20
V
26 °C 10 km+ - 010° 010° 8 kt METAR EDHL 101420Z 01008KT 320V070 CAVOK 26/12 Q1026 RMK
15:50
V
26 °C 10 km+ - 360° 360° 8 kt METAR EDHL 101350Z 36008KT 320V060 CAVOK 26/12 Q1027 RMK
15:20
V
26 °C 10 km+ - 350° 350° 5 kt METAR EDHL 101320Z 35005KT 310V040 CAVOK 26/12 Q1027 RMK
14:50
V
26 °C 10 km+ - Var Var 4 kt METAR EDHL 101250Z VRB04KT CAVOK 26/12 Q1027 RMK
14:20
V
25 °C 10 km+ - Var Var 3 kt METAR EDHL 101220Z VRB03KT CAVOK 25/11 Q1027 RMK
13:50
V
24 °C 10 km+ - Var Var 3 kt METAR EDHL 101150Z VRB03KT CAVOK 24/11 Q1027 RMK
13:20
V
24 °C 10 km+ - 070° 070° 5 kt METAR EDHL 101120Z 07005KT 350V110 CAVOK 24/11 Q1028 RMK
12:50
V
24 °C 10 km+ - Var Var 3 kt METAR EDHL 101050Z VRB03KT 9999 FEW048 24/12 Q1028 RMK
12:20
V
24 °C 10 km+ - Var Var 3 kt METAR EDHL 101020Z VRB03KT 9999 FEW049 24/12 Q1028 RMK
11:50
V
23 °C 10 km+ - Var Var 4 kt METAR EDHL 100950Z VRB04KT CAVOK 23/12 Q1028 RMK
11:20
V
23 °C 10 km+ - Var Var 3 kt METAR EDHL 100920Z VRB03KT CAVOK 23/12 Q1028 RMK
10:50
V
23 °C 10 km+ - Var Var 3 kt METAR EDHL 100850Z VRB03KT CAVOK 23/13 Q1029 RMK
10:20
V
21 °C 10 km+ - 100° 100° 3 kt METAR EDHL 100820Z 10003KT 070V170 CAVOK 21/13 Q1029 RMK
09:50
V
21 °C 10 km+ - Var Var 2 kt METAR EDHL 100750Z VRB02KT CAVOK 21/14 Q1029 RMK
09:20
V
20 °C 10 km+ - 080° 080° 4 kt METAR EDHL 100720Z 08004KT 050V130 CAVOK 20/14 Q1029 RMK
08:50
V
18 °C 10 km+ - 090° 090° 3 kt METAR EDHL 100650Z 09003KT 040V150 CAVOK 18/14 Q1028 RMK
08:20
V
18 °C 10 km+ - Var Var 1 kt METAR EDHL 100620Z VRB01KT CAVOK 18/15 Q1028 RMK
07:50
V
16 °C 10 km+ - Var 000° 0 kt METAR EDHL 100550Z 00000KT CAVOK 16/14 Q1029 RMK
07:20
V
13 °C 10 km+ - Var 000° 0 kt METAR EDHL 100520Z 00000KT CAVOK 13/13 Q1029 RMK
06:50
V
12 °C 10 km+ - Var 000° 0 kt METAR EDHL 100450Z 00000KT CAVOK 12/12 Q1029 RMK
06:20
V
11 °C 10 km+ - Var 000° 0 kt METAR EDHL 100420Z 00000KT 9999 FEW001 11/10 Q1029 RMK
05:50
I
10 °C 1,5 km - Var 000° 0 kt METAR EDHL 100350Z AUTO 00000KT 9000 1500 // NCD 10/10 Q1029
05:20
L
10 °C 1,4 km - Var 000° 0 kt METAR EDHL 100320Z AUTO 00000KT 3800 1400 R07/1800U // FEW001/// 10/10 Q1028
04:50
M
10 °C 5 km - Var 000° 0 kt METAR EDHL 100250Z AUTO 00000KT 5000 // FEW001/// 10/10 Q1028
04:20
L
11 °C 800 m - Var 000° 0 kt METAR EDHL 100220Z AUTO 00000KT 0900 0800 R07/1600D // FEW001/// 11/10 Q1028
03:50
L
11 °C 1 km - Var 000° 0 kt METAR EDHL 100150Z AUTO 00000KT 9999 1000 R07/P2000N // FEW001/// 11/10 Q1028
03:20
L
11 °C 750 m - Var Var 1 kt METAR EDHL 100120Z AUTO VRB01KT 9999 0750 R07/P2000N // NCD 11/10 Q1028
02:50
L
11 °C 1,3 km - Var Var 1 kt METAR EDHL 100050Z AUTO VRB01KT 9999 1300 R07/P2000N // FEW001/// 11/11 Q1029
02:20
I
12 °C 2,5 km - Var 000° 0 kt METAR EDHL 100020Z AUTO 00000KT 9999 2500 // FEW001/// 12/11 Q1029
01:50
V
12 °C 10 km+ - 160° 160° 1 kt METAR EDHL 092350Z AUTO 16001KT 9999 // FEW001/// 12/12 Q1029
01:20
V
12 °C 10 km+ - 240° 240° 1 kt METAR EDHL 092320Z AUTO 24001KT 9999 // FEW001/// 12/11 Q1029
00:50
V
13 °C 10 km+ - Var 000° 0 kt METAR EDHL 092250Z AUTO 00000KT 9999 // NCD 13/11 Q1029
00:20
V
13 °C 10 km+ - Var Var 1 kt METAR EDHL 092220Z AUTO VRB01KT 9999 // NCD 13/12 Q1029

9 agosto 2022

Tempo Codice Tempo metereologico Temp. Vista Base nuvolosa Vento METAR/SPECI
23:50
V
14 °C 10 km+ - Var 000° 0 kt METAR EDHL 092150Z AUTO 00000KT 9999 // NCD 14/12 Q1029
23:20
V
15 °C 10 km+ - Var 000° 0 kt METAR EDHL 092120Z AUTO 00000KT 9999 // NCD 15/12 Q1029
22:50
V
15 °C 10 km+ - Var 000° 0 kt METAR EDHL 092050Z AUTO 00000KT 9999 // NCD 15/12 Q1029
22:20
V
16 °C 10 km+ - Var Var 1 kt METAR EDHL 092020Z AUTO VRB01KT 9999 // NCD 16/12 Q1029
21:50
V
17 °C 10 km+ - Var Var 2 kt METAR EDHL 091950Z AUTO VRB02KT 9999 // NCD 17/12 Q1029
21:20
V
18 °C 10 km+ - 070° 070° 3 kt METAR EDHL 091920Z AUTO 07003KT 9999 // NCD 18/12 Q1028
20:50
V
19 °C 10 km+ - 060° 060° 5 kt METAR EDHL 091850Z 06005KT CAVOK 19/12 Q1028 RMK
20:20
V
20 °C 10 km+ - 050° 050° 7 kt METAR EDHL 091820Z 05007KT CAVOK 20/12 Q1028 RMK
19:50
V
21 °C 10 km+ - 060° 060° 8 kt METAR EDHL 091750Z 06008KT CAVOK 21/12 Q1028 RMK
19:20
V
21 °C 10 km+ - 050° 050° 10 kt METAR EDHL 091720Z 05010KT CAVOK 21/13 Q1028
18:50
V
22 °C 10 km+ - 050° 050° 10 kt METAR EDHL 091650Z 05010KT CAVOK 22/13 Q1028 RMK
18:20
V
23 °C 10 km+ - 050° 050° 9 kt METAR EDHL 091620Z 05009KT CAVOK 23/14 Q1028 RMK
17:50
V
23 °C 10 km+ - 040° 040° 10 kt METAR EDHL 091550Z 04010KT 010V070 CAVOK 23/13 Q1028 RMK
17:20
V
23 °C 10 km+ - 050° 050° 10 kt METAR EDHL 091520Z 05010KT 9999 FEW037 23/14 Q1028 RMK
16:50
V
23 °C 10 km+ - 050° 050° 7 kt METAR EDHL 091450Z 05007KT 350V090 9999 FEW038 23/14 Q1028 RMK
Dati più vecchi

Noi e le terze parti seguiamo il tuo comportamento in internet sul nostro sito web con i cookie. Se continui, riteniamo che tu sia d'accordo con la nostra politica sui cookie. Per saperne di più